DW6455 Orivesi FI current weather conditions

sailwx.info

Wind from 027

Air temperature 7.8° C
Dewpoint 7.0° C

Last reported at 2017-Sep-23 19:07 UTC.
Time now 2017-Sep-23 20:16 UTC

Location: N 61°39' E 024°21'.
View on Google Maps.

See reports from other nearby stations

  
Tides and Currents Weather Stations Pressure Air Temp Water Temp Dewpoint Dewpoint Depression Visibility Wind Speed Wind Dir Waves Ship Positions
date/time (UTC)wind fromknots sea level pressurealtimeterstation pressurevisibilityair tempwater tempwave heightnotes
2017-Sep-23 19:07 027 7.8
2017-Sep-23 19:02 028 8.3
2017-Sep-23 18:57 027 8.3
2017-Sep-23 18:52 028 8.3
2017-Sep-23 18:47 027 8.3
2017-Sep-23 18:42 027 8.3
2017-Sep-23 18:37 028 8.3
2017-Sep-23 18:32 028 0 gusting 2 8.9
2017-Sep-23 18:27 028 0 gusting 2 8.9
2017-Sep-23 18:22 028 0 gusting 2 8.9
2017-Sep-23 18:17 028 0 gusting 2 8.9
2017-Sep-23 18:12 028 0 gusting 1 8.9
2017-Sep-23 18:07 028 0 gusting 1 8.9
2017-Sep-23 18:02 087 0 gusting 1 8.9
2017-Sep-23 17:57 107 8.9
2017-Sep-23 17:52 118 8.9
2017-Sep-23 17:47 118 8.9
2017-Sep-23 17:42 118 9.4
2017-Sep-23 17:37 119 0 9.4
2017-Sep-23 17:32 118 9.4
2017-Sep-23 17:27 118 9.4
2017-Sep-23 17:22 118 9.4
2017-Sep-23 17:17 118 9.4
2017-Sep-23 17:12 118 10.0
2017-Sep-23 17:07 119 10.0
2017-Sep-23 17:02 118 10.6
2017-Sep-23 16:57 119 10.6
2017-Sep-23 16:52 118 10.6
2017-Sep-23 16:47 118 10.6
2017-Sep-23 16:42 118 10.6
2017-Sep-23 16:37 118 10.6
2017-Sep-23 16:32 118 11.1
2017-Sep-23 16:27 118 11.1
2017-Sep-23 16:22 118 0 gusting 4 11.1
2017-Sep-23 16:17 118 1 gusting 4 11.1
2017-Sep-23 16:12 117 2 gusting 4 11.1
2017-Sep-23 16:07 133 2 gusting 4 11.7
2017-Sep-23 16:02 136 2 gusting 3 11.7
2017-Sep-23 15:57 140 1 gusting 3 11.7
2017-Sep-23 15:52 132 0 gusting 3 11.7
2017-Sep-23 15:47 131 0 gusting 7 12.2
2017-Sep-23 15:42 138 1 gusting 7 12.2
2017-Sep-23 15:37 138 1 gusting 7 12.2
2017-Sep-23 15:32 123 2 gusting 6 12.2
2017-Sep-23 15:27 134 3 gusting 6 12.8
2017-Sep-23 15:22 136 3 gusting 6 12.8
2017-Sep-23 15:17 121 2 gusting 7 12.8
2017-Sep-23 15:12 134 2 gusting 7 12.8
2017-Sep-23 15:07 116 2 gusting 7 12.8
2017-Sep-23 15:02 133 3 gusting 7 12.8
2017-Sep-23 14:57 107 3 gusting 4 12.8
2017-Sep-23 14:52 142 2 gusting 4 12.8
2017-Sep-23 14:47 127 1 gusting 6 13.3
2017-Sep-23 14:42 088 1 gusting 6 13.3
2017-Sep-23 14:37 083 1 gusting 6 13.3
2017-Sep-23 14:32 076 2 gusting 6 13.3
2017-Sep-23 14:27 121 2 gusting 6 13.3
2017-Sep-23 14:22 117 2 gusting 6 13.3
2017-Sep-23 14:17 111 2 gusting 6 13.3
2017-Sep-23 14:12 113 2 gusting 7 13.3
2017-Sep-23 14:07 107 2 gusting 7 13.3
2017-Sep-23 14:02 096 2 gusting 7 13.3
2017-Sep-23 13:57 134 3 gusting 7 13.3
2017-Sep-23 13:52 123 3 gusting 7 13.3
2017-Sep-23 13:47 123 2 gusting 6 13.3
2017-Sep-23 13:42 146 2 gusting 6 13.3
2017-Sep-23 13:37 126 2 gusting 7 13.3
2017-Sep-23 13:32 113 3 gusting 7 13.3
2017-Sep-23 13:27 109 4 gusting 7 13.3
2017-Sep-23 13:22 136 4 gusting 7 13.3
2017-Sep-23 13:17 153 4 gusting 7 13.3
2017-Sep-23 13:12 136 4 gusting 7 13.3
2017-Sep-23 13:07 154 4 gusting 7 13.3
2017-Sep-23 13:02 136 4 gusting 7 13.3
2017-Sep-23 12:57 130 4 gusting 6 13.9
2017-Sep-23 12:52 130 3 gusting 6 13.9
2017-Sep-23 12:47 083 2 gusting 7 13.9
2017-Sep-23 12:42 118 2 gusting 7 13.3
2017-Sep-23 12:37 095 3 gusting 7 13.3
2017-Sep-23 12:32 105 3 gusting 7 13.3
2017-Sep-23 12:27 126 3 gusting 7 13.9
2017-Sep-23 12:22 114 3 gusting 7 13.9
2017-Sep-23 12:17 130 3 gusting 7 13.9
2017-Sep-23 12:12 132 3 gusting 7 13.9
2017-Sep-23 12:07 133 3 gusting 6 13.9
2017-Sep-23 12:02 157 3 gusting 6 13.9
2017-Sep-23 11:57 133 3 gusting 6 13.9
2017-Sep-23 11:52 130 3 gusting 7 13.9
2017-Sep-23 11:47 132 3 gusting 7 13.3
2017-Sep-23 11:42 155 4 gusting 7 13.9
2017-Sep-23 11:37 128 3 gusting 7 13.9
2017-Sep-23 11:32 107 3 gusting 7 13.3
2017-Sep-23 11:27 134 4 gusting 9 13.3
2017-Sep-23 11:22 114 4 gusting 9 13.3
2017-Sep-23 11:17 103 4 gusting 9 13.3
2017-Sep-23 11:12 144 4 gusting 7 13.3
2017-Sep-23 11:07 112 4 gusting 7 13.3
2017-Sep-23 11:02 141 4 gusting 7 13.3
2017-Sep-23 10:57 144 3 gusting 9 13.3
2017-Sep-23 10:52 153 4 gusting 9 12.8
2017-Sep-23 10:47 128 4 gusting 9 12.8
2017-Sep-23 10:42 134 5 gusting 9 12.8
2017-Sep-23 10:37 155 5 gusting 9 12.8
2017-Sep-23 10:32 121 6 gusting 9 12.8
2017-Sep-23 10:27 104 5 gusting 9 12.8
2017-Sep-23 10:22 124 5 gusting 9 12.8
2017-Sep-23 10:17 133 5 gusting 9 12.8
2017-Sep-23 10:12 135 5 gusting 12 12.8
2017-Sep-23 10:07 160 5 gusting 12 12.8
2017-Sep-23 10:02 148 6 gusting 12 12.8
2017-Sep-23 09:57 140 6 gusting 8 12.8
2017-Sep-23 09:52 139 3 gusting 8 13.3
2017-Sep-23 09:47 161 3 gusting 8 12.8
2017-Sep-23 09:42 128 3 gusting 8 12.8
2017-Sep-23 09:37 138 3 gusting 9 12.8
2017-Sep-23 09:32 132 5 gusting 9 12.8
2017-Sep-23 09:27 153 5 gusting 9 12.8
2017-Sep-23 09:22 145 4 gusting 10 12.2
2017-Sep-23 09:17 128 5 gusting 10 12.2
2017-Sep-23 09:12 163 4 gusting 10 12.2
2017-Sep-23 09:07 134 4 gusting 9 12.2
2017-Sep-23 09:02 158 5 gusting 9 11.7
2017-Sep-23 08:57 146 5 gusting 9 12.2
2017-Sep-23 08:52 147 6 gusting 10 12.2
2017-Sep-23 08:47 161 6 gusting 10 11.7
2017-Sep-23 08:42 153 6 gusting 10 11.7
2017-Sep-23 08:37 144 5 gusting 10 11.7
2017-Sep-23 08:32 138 4 gusting 10 11.7
2017-Sep-23 08:27 125 4 gusting 12 11.7
2017-Sep-23 08:22 148 6 gusting 12 11.7
2017-Sep-23 08:17 135 6 gusting 12 11.7
2017-Sep-23 08:12 151 7 gusting 8 11.7
2017-Sep-23 08:07 137 7 gusting 8 11.7
2017-Sep-23 08:02 134 5 gusting 8 11.7
2017-Sep-23 07:57 151 4 gusting 7 11.7
2017-Sep-23 07:52 119 3 gusting 7 11.1
2017-Sep-23 07:47 129 3 gusting 11 11.1
2017-Sep-23 07:42 148 5 gusting 11 11.1
2017-Sep-23 07:37 125 5 gusting 9 11.1
2017-Sep-23 07:32 143 6 gusting 9 11.1
2017-Sep-23 07:27 142 5 gusting 9 11.1
2017-Sep-23 07:22 122 5 gusting 9 10.6
2017-Sep-23 07:17 131 6 gusting 11 10.6
2017-Sep-23 07:12 149 5 gusting 11 10.6
2017-Sep-23 07:07 130 5 gusting 8 10.6
2017-Sep-23 07:02 126 5 gusting 8 10.6
2017-Sep-23 06:57 135 4 gusting 8 10.6
2017-Sep-23 06:52 116 5 gusting 10 10.6
2017-Sep-23 06:47 143 5 gusting 10 10.6
2017-Sep-23 06:42 118 6 gusting 10 10.6
2017-Sep-23 06:37 135 5 gusting 9 10.6
2017-Sep-23 06:32 142 5 gusting 9 10.6
2017-Sep-23 06:27 130 5 gusting 11 10.6
2017-Sep-23 06:22 129 4 gusting 11 10.6
2017-Sep-23 06:17 124 5 gusting 11 10.6
2017-Sep-23 06:12 146 6 gusting 9 10.6
2017-Sep-23 06:07 139 5 gusting 9 10.6
2017-Sep-23 06:02 130 5 gusting 9 10.6
2017-Sep-23 05:57 123 5 gusting 10 10.6
2017-Sep-23 05:52 156 5 gusting 10 10.6
2017-Sep-23 05:47 146 4 gusting 7 10.6
2017-Sep-23 05:42 159 4 gusting 7 10.0
2017-Sep-23 05:37 123 4 gusting 7 10.0
2017-Sep-23 05:32 144 4 gusting 7 10.0
2017-Sep-23 05:27 166 3 gusting 6 10.0
2017-Sep-23 05:22 147 3 gusting 6 10.0
2017-Sep-23 05:17 142 3 gusting 7 10.0
2017-Sep-23 05:12 125 3 gusting 7 10.0
2017-Sep-23 05:07 117 3 gusting 9 10.0
2017-Sep-23 05:02 128 2 gusting 9 10.0
2017-Sep-23 04:57 130 3 gusting 9 10.0
2017-Sep-23 04:52 132 4 gusting 6 10.0
2017-Sep-23 04:47 138 3 gusting 6 10.0
2017-Sep-23 04:42 089 3 gusting 6 10.0
2017-Sep-23 04:37 123 3 gusting 10 10.0
2017-Sep-23 04:32 104 2 gusting 10 10.0
2017-Sep-23 04:27 137 3 gusting 10 10.0
2017-Sep-23 04:22 120 4 gusting 10 10.0
2017-Sep-23 04:17 156 4 gusting 7 10.0
2017-Sep-23 04:12 151 2 gusting 7 10.0
2017-Sep-23 04:07 138 2 gusting 7 10.0
2017-Sep-23 04:02 128 3 gusting 6 10.0
2017-Sep-23 03:57 132 3 gusting 6 10.0
2017-Sep-23 03:52 147 2 gusting 6 10.0
2017-Sep-23 03:47 124 2 gusting 8 10.0
2017-Sep-23 03:42 134 2 gusting 8 10.0
2017-Sep-23 03:37 130 3 gusting 8 10.0
2017-Sep-23 03:32 148 3 gusting 7 10.0
2017-Sep-23 03:27 142 3 gusting 7 10.0
2017-Sep-23 03:22 132 4 gusting 7 10.0
2017-Sep-23 03:17 151 5 gusting 9 10.0
2017-Sep-23 03:12 135 4 gusting 9 10.0
2017-Sep-23 03:07 142 4 gusting 9 10.0
2017-Sep-23 03:02 156 5 gusting 9 10.0
2017-Sep-23 02:57 144 6 gusting 10 10.0
2017-Sep-23 02:52 141 6 gusting 10 10.0
2017-Sep-23 02:47 146 5 gusting 10 10.0
2017-Sep-23 02:42 156 5 gusting 10 10.0
2017-Sep-23 02:37 126 5 gusting 10 10.0
2017-Sep-23 02:32 146 5 gusting 10 10.0
2017-Sep-23 02:27 142 4 gusting 7 10.0
2017-Sep-23 02:22 102 2 gusting 7 10.0
2017-Sep-23 02:17 113 2 gusting 8 10.0
2017-Sep-23 02:12 119 3 gusting 8 10.6
2017-Sep-23 02:07 111 3 gusting 10 10.6
2017-Sep-23 02:02 135 4 gusting 10 10.6
2017-Sep-23 01:57 123 4 gusting 10 10.6
2017-Sep-23 01:52 150 5 gusting 9 10.6
2017-Sep-23 01:47 132 3 gusting 9 10.6
2017-Sep-23 01:42 133 2 gusting 9 10.6
2017-Sep-23 01:37 132 3 gusting 9 10.6
2017-Sep-23 01:32 137 4 gusting 9 10.6
2017-Sep-23 01:27 134 3 gusting 9 10.6
2017-Sep-23 01:22 134 2 gusting 6 10.6
2017-Sep-23 01:17 151 2 gusting 6 10.6
2017-Sep-23 01:12 127 2 gusting 8 10.6
2017-Sep-23 01:07 138 3 gusting 8 10.6
2017-Sep-23 01:02 142 4 gusting 10 10.6
2017-Sep-23 00:57 143 4 gusting 10 10.6
2017-Sep-23 00:52 136 3 gusting 10 10.6
2017-Sep-23 00:47 171 4 gusting 10 10.6
2017-Sep-23 00:42 162 4 gusting 7 10.6
2017-Sep-23 00:37 127 3 gusting 7 10.6
2017-Sep-23 00:32 140 3 gusting 9 10.6
2017-Sep-23 00:27 126 3 gusting 9 10.6
2017-Sep-23 00:22 119 4 gusting 6 10.6
2017-Sep-23 00:17 161 3 gusting 6 10.6
2017-Sep-23 00:12 126 3 gusting 9 10.6
2017-Sep-23 00:07 114 3 gusting 9 10.6
2017-Sep-23 00:02 108 3 gusting 6 10.6
2017-Sep-22 23:57 142 3 gusting 6 10.6
2017-Sep-22 23:52 132 3 gusting 6 10.6
2017-Sep-22 23:47 154 3 gusting 6 10.6
2017-Sep-22 23:42 166 3 gusting 10 10.6
2017-Sep-22 23:37 124 3 gusting 10 10.6
2017-Sep-22 23:32 142 3 gusting 10 10.6
2017-Sep-22 23:27 150 4 gusting 10 10.6
2017-Sep-22 23:22 145 3 gusting 6 10.6
2017-Sep-22 23:17 148 2 gusting 6 10.6
2017-Sep-22 23:12 148 2 gusting 8 10.6
2017-Sep-22 23:07 116 2 gusting 8 10.6
2017-Sep-22 23:02 147 3 gusting 7 10.6
2017-Sep-22 22:57 136 3 gusting 7 10.6
2017-Sep-22 22:52 133 2 gusting 8 10.6
2017-Sep-22 22:47 121 3 gusting 8 10.6
2017-Sep-22 22:42 124 3 gusting 8 10.6
2017-Sep-22 22:37 152 3 gusting 8 10.6
2017-Sep-22 22:32 128 4 gusting 8 10.6
2017-Sep-22 22:27 131 5 gusting 8 10.6
2017-Sep-22 22:22 147 5 gusting 9 10.6
2017-Sep-22 22:17 159 4 gusting 9 10.6
2017-Sep-22 22:12 139 4 gusting 6 10.6
2017-Sep-22 22:07 147 3 gusting 6 10.6
2017-Sep-22 22:02 128 3 gusting 6 10.6
2017-Sep-22 21:57 132 3 gusting 7 10.6
2017-Sep-22 21:52 145 3 gusting 7 10.6
2017-Sep-22 21:47 162 2 gusting 8 10.6
2017-Sep-22 21:42 113 2 gusting 8 10.6
2017-Sep-22 21:37 135 2 gusting 8 10.6
2017-Sep-22 21:32 140 3 gusting 8 10.6
2017-Sep-22 21:27 119 3 gusting 8 10.6
2017-Sep-22 21:22 128 3 gusting 8 10.6
2017-Sep-22 21:17 135 3 gusting 9 10.6
2017-Sep-22 21:12 133 3 gusting 9 10.6
2017-Sep-22 21:07 128 4 gusting 7 10.6
2017-Sep-22 21:02 142 4 gusting 7 10.6
2017-Sep-22 20:57 139 3 gusting 7 10.6
2017-Sep-22 20:52 112 3 gusting 7 10.6
2017-Sep-22 20:47 133 3 gusting 7 10.6
2017-Sep-22 20:42 129 4 gusting 9 10.6
2017-Sep-22 20:37 148 4 gusting 9 10.6
2017-Sep-22 20:32 128 4 gusting 7 10.6
2017-Sep-22 20:27 106 3 gusting 7 10.6
2017-Sep-22 20:22 137 3 gusting 7 10.6
2017-Sep-22 20:17 131 3 gusting 7 10.6
2017-Sep-22 20:12 144 2 gusting 7 10.6
2017-Sep-22 20:07 133 3 gusting 7 10.6
2017-Sep-22 20:02 117 3 gusting 8 10.6
2017-Sep-22 19:57 112 4 gusting 8 10.6
2017-Sep-22 19:52 130 3 gusting 7 10.6
2017-Sep-22 19:47 139 2 gusting 7 10.6
2017-Sep-22 19:42 140 3 gusting 11 10.6
2017-Sep-22 19:37 118 3 gusting 11 10.6
2017-Sep-22 19:32 135 4 gusting 9 10.6
2017-Sep-22 19:27 105 4 gusting 9 10.6
2017-Sep-22 19:22 092 3 gusting 6 10.6
2017-Sep-22 19:17 132 2 gusting 6 10.6
2017-Sep-22 19:12 082 2 gusting 6 10.6
2017-Sep-22 19:07 132 2 gusting 6 10.6
2017-Sep-22 19:02 132 3 gusting 8 10.6
2017-Sep-22 18:57 124 3 gusting 8 10.6
2017-Sep-22 18:52 109 2 gusting 8 10.6
2017-Sep-22 18:47 113 3 gusting 8 10.6
2017-Sep-22 18:42 128 4 gusting 6 10.6
2017-Sep-22 18:37 137 2 gusting 6 10.6
2017-Sep-22 18:32 128 1 gusting 6 10.6
2017-Sep-22 18:27 147 2 gusting 6 10.6
2017-Sep-22 18:22 125 3 gusting 6 10.6
2017-Sep-22 18:17 121 4 gusting 6 10.6
2017-Sep-22 18:12 092 3 gusting 9 10.6
2017-Sep-22 18:07 117 4 gusting 9 10.6
2017-Sep-22 18:02 136 4 gusting 9 10.6
2017-Sep-22 17:57 129 3 gusting 9 10.6
2017-Sep-22 17:52 114 4 gusting 9 10.6
2017-Sep-22 17:47 144 4 gusting 9 10.6
2017-Sep-22 17:42 126 2 gusting 7 10.6
2017-Sep-22 17:37 118 2 gusting 7 10.6
2017-Sep-22 17:32 103 3 gusting 9 10.6
2017-Sep-22 17:27 136 3 gusting 9 10.6
2017-Sep-22 17:22 111 4 gusting 11 10.6
2017-Sep-22 17:17 125 4 gusting 11 10.6
2017-Sep-22 17:12 150 3 gusting 11 10.6
2017-Sep-22 17:07 136 4 gusting 11 10.6
2017-Sep-22 17:02 098 4 gusting 11 10.6
2017-Sep-22 16:57 126 4 gusting 11 10.6
2017-Sep-22 16:52 087 5 gusting 13 10.6
2017-Sep-22 16:47 141 5 gusting 13 10.6
2017-Sep-22 16:42 116 6 gusting 13 10.6
2017-Sep-22 16:37 168 6 gusting 13 10.6
2017-Sep-22 16:32 126 6 gusting 12 10.6
2017-Sep-22 16:27 140 6 gusting 12 10.6
2017-Sep-22 16:22 144 6 gusting 12 10.6
2017-Sep-22 16:17 126 6 gusting 12 10.6
2017-Sep-22 16:12 123 5 gusting 8 10.6
2017-Sep-22 16:07 136 4 gusting 8 10.6
2017-Sep-22 16:02 138 3 gusting 8 10.6
2017-Sep-22 15:57 116 2 gusting 8 10.6
2017-Sep-22 15:52 058 2 gusting 8 10.6
2017-Sep-22 15:47 121 2 gusting 10 10.6
2017-Sep-22 15:42 059 2 gusting 10 11.1
2017-Sep-22 15:38 132 2 gusting 11 11.1
2017-Sep-22 15:32 121 3 gusting 11 11.1
2017-Sep-22 15:27 131 4 gusting 11 11.1
2017-Sep-22 15:22 111 5 gusting 10 11.1
2017-Sep-22 15:17 147 4 gusting 10 11.1
2017-Sep-22 15:12 096 4 gusting 10 11.1
2017-Sep-22 15:07 145 5 gusting 10 11.1
2017-Sep-22 15:02 140 4 gusting 11 11.1
2017-Sep-22 14:57 120 3 gusting 11 11.1
2017-Sep-22 14:52 117 3 gusting 9 11.1
2017-Sep-22 14:47 070 3 gusting 9 11.1
2017-Sep-22 14:42 078 3 gusting 10 11.1
2017-Sep-22 14:37 120 5 gusting 10 11.1
2017-Sep-22 14:32 138 5 gusting 9 11.1
2017-Sep-22 14:27 107 4 gusting 9 11.1
2017-Sep-22 14:22 084 4 gusting 9 11.1
2017-Sep-22 14:17 134 5 gusting 9 11.1
2017-Sep-22 14:12 121 4 gusting 9 11.7
2017-Sep-22 14:07 096 4 gusting 9 11.7
2017-Sep-22 14:02 086 3 gusting 10 11.7
2017-Sep-22 13:57 053 2 gusting 10 11.7
2017-Sep-22 13:52 111 3 gusting 10 11.7
2017-Sep-22 13:47 127 5 gusting 10 11.7
2017-Sep-22 13:42 082 6 gusting 9 11.7
2017-Sep-22 13:37 142 4 gusting 9 11.7
2017-Sep-22 13:32 092 3 gusting 10 11.7
2017-Sep-22 13:27 128 5 gusting 10 11.7
2017-Sep-22 13:22 121 5 gusting 10 11.7
2017-Sep-22 13:17 115 4 gusting 10 11.7
2017-Sep-22 13:12 144 4 gusting 8 11.7
2017-Sep-22 13:07 129 3 gusting 8 11.7
2017-Sep-22 13:02 132 3 gusting 8 11.7
2017-Sep-22 12:57 138 4 gusting 8 11.7
2017-Sep-22 12:52 128 4 gusting 8 11.7
2017-Sep-22 12:47 075 3 gusting 8 11.7
2017-Sep-22 12:42 124 3 gusting 12 11.7
2017-Sep-22 12:37 125 4 gusting 12 11.7
2017-Sep-22 12:32 040 4 gusting 12 11.7
2017-Sep-22 12:27 132 4 gusting 12 11.7
2017-Sep-22 12:22 140 4 gusting 11 11.7
2017-Sep-22 12:17 075 4 gusting 11 11.7
2017-Sep-22 12:12 115 3 gusting 6 11.7
2017-Sep-22 12:07 080 2 gusting 6 11.7
2017-Sep-22 12:02 131 3 gusting 8 11.7
2017-Sep-22 11:57 107 3 gusting 8 11.7
2017-Sep-22 11:52 131 4 gusting 8 11.7
2017-Sep-22 11:47 144 4 gusting 8 11.7
2017-Sep-22 11:42 113 3 gusting 8 11.7
2017-Sep-22 11:37 123 3 gusting 8 11.7
2017-Sep-22 11:32 116 3 gusting 8 11.7
2017-Sep-22 11:27 141 3 gusting 8 11.7
2017-Sep-22 11:22 126 3 gusting 9 11.7
2017-Sep-22 11:17 128 3 gusting 9 11.7
2017-Sep-22 11:12 121 4 gusting 9 11.7
2017-Sep-22 11:07 126 4 gusting 9 11.7
2017-Sep-22 11:02 141 4 gusting 8 11.7
2017-Sep-22 10:57 120 4 gusting 8 11.7
2017-Sep-22 10:52 153 3 gusting 7 11.7
2017-Sep-22 10:47 144 4 gusting 7 11.7
2017-Sep-22 10:42 155 4 gusting 6 11.7
2017-Sep-22 10:37 148 2 gusting 6 11.7
2017-Sep-22 10:32 134 1 gusting 6 11.7
2017-Sep-22 10:27 140 1 gusting 6 11.7
2017-Sep-22 10:22 099 1 gusting 8 11.7
2017-Sep-22 10:17 104 2 gusting 8 11.7
2017-Sep-22 10:12 111 3 gusting 9 11.1
2017-Sep-22 10:07 136 4 gusting 9 11.1
2017-Sep-22 10:02 140 4 gusting 9 11.1
2017-Sep-22 09:57 119 5 gusting 9 11.1
2017-Sep-22 09:52 128 5 gusting 9 11.7
2017-Sep-22 09:47 138 3 gusting 7 11.7
2017-Sep-22 09:42 134 3 gusting 7 11.7
2017-Sep-22 09:37 043 2 gusting 9 11.1
2017-Sep-22 09:32 090 2 gusting 9 11.1
2017-Sep-22 09:27 061 2 gusting 9 11.1
2017-Sep-22 09:22 080 2 gusting 10 10.6
2017-Sep-22 09:17 084 2 gusting 10 10.6
2017-Sep-22 09:12 042 3 gusting 10 10.6
2017-Sep-22 09:07 113 4 gusting 10 10.6
2017-Sep-22 09:02 046 3 gusting 7 10.6
2017-Sep-22 08:57 135 3 gusting 7 10.6
2017-Sep-22 08:52 132 2 gusting 10 10.6
2017-Sep-22 08:47 082 4 gusting 10 10.6
2017-Sep-22 08:42 077 5 gusting 9 10.6
2017-Sep-22 08:37 132 3 gusting 9 10.6
2017-Sep-22 08:32 141 2 gusting 8 10.6
2017-Sep-22 08:27 130 3 gusting 8 10.6
2017-Sep-22 08:22 121 3 gusting 9 10.6
2017-Sep-22 08:17 078 2 gusting 9 10.0
2017-Sep-22 08:12 132 4 gusting 9 10.0
2017-Sep-22 08:07 104 4 gusting 9 10.0
2017-Sep-22 08:02 117 4 gusting 8 10.0
2017-Sep-22 07:57 097 3 gusting 8 10.0
2017-Sep-22 07:52 086 3 gusting 7 10.0
2017-Sep-22 07:47 181 2 gusting 7 10.0
2017-Sep-22 07:42 094 1 gusting 8 10.0
2017-Sep-22 07:37 138 2 gusting 8 10.0
2017-Sep-22 07:32 113 2 gusting 11 9.4
2017-Sep-22 07:27 112 3 gusting 11 9.4
2017-Sep-22 07:22 036 4 gusting 11 9.4
2017-Sep-22 07:17 134 3 gusting 11 9.4
2017-Sep-22 07:12 078 3 gusting 10 9.4
2017-Sep-22 07:07 127 4 gusting 10 9.4
2017-Sep-22 07:04 144 4 gusting 8 9.4
2017-Sep-22 06:57 065 3 gusting 8 9.4
2017-Sep-22 06:52 084 2 gusting 9 9.4
2017-Sep-22 06:47 094 2 gusting 9 9.4
2017-Sep-22 06:42 055 3 gusting 9 8.9
2017-Sep-22 06:37 032 3 gusting 9 8.9
2017-Sep-22 06:32 082 3 gusting 6 8.9
2017-Sep-22 06:27 040 2 gusting 6 8.9
2017-Sep-22 06:22 111 2 gusting 8 8.9
2017-Sep-22 06:17 057 2 gusting 8 8.9
2017-Sep-22 06:12 022 2 gusting 8 8.9
2017-Sep-22 06:07 088 2 gusting 8 8.9
2017-Sep-22 06:02 113 2 gusting 8 8.9
2017-Sep-22 05:57 035 2 gusting 8 8.9
2017-Sep-22 05:52 065 3 gusting 8 8.9
2017-Sep-22 05:47 076 2 gusting 6 8.9
2017-Sep-22 05:42 067 2 gusting 6 8.9
2017-Sep-22 05:37 054 2 gusting 6 8.9
2017-Sep-22 05:32 038 1 gusting 6 8.9
2017-Sep-22 05:27 101 1 gusting 6 8.9
2017-Sep-22 05:22 098 1 gusting 9 8.9
2017-Sep-22 05:17 136 0 gusting 9 8.9
2017-Sep-22 05:12 072 1 gusting 7 8.9
2017-Sep-22 05:07 105 1 gusting 7 8.9
2017-Sep-22 05:02 103 2 gusting 7 8.9
2017-Sep-22 04:57 146 2 gusting 5 8.9
2017-Sep-22 04:52 076 2 gusting 5 8.9
2017-Sep-22 04:47 109 1 gusting 7 8.9
2017-Sep-22 04:42 085 1 gusting 7 8.9
2017-Sep-22 04:37 092 1 gusting 7 8.9
2017-Sep-22 04:32 105 3 gusting 6 8.9
2017-Sep-22 04:27 134 2 gusting 6 8.9
2017-Sep-22 04:22 136 1 gusting 6 8.9
2017-Sep-22 04:17 076 1 gusting 7 8.9
2017-Sep-22 04:12 064 0 gusting 7 8.9
2017-Sep-22 04:07 079 0 gusting 7 8.9
2017-Sep-22 04:02 108 2 gusting 6 8.9
2017-Sep-22 03:57 132 2 gusting 6 8.9
2017-Sep-22 03:52 148 1 gusting 6 8.9
2017-Sep-22 03:47 076 2 gusting 7 8.9
2017-Sep-22 03:42 113 1 gusting 7 8.9
2017-Sep-22 03:37 064 0 gusting 7 8.9
2017-Sep-22 03:32 063 1 gusting 8 8.9
2017-Sep-22 03:27 058 3 gusting 8 8.9
2017-Sep-22 03:22 132 2 gusting 8 8.9
2017-Sep-22 03:17 140 2 gusting 6 8.9
2017-Sep-22 03:12 098 2 gusting 6 8.9
2017-Sep-22 03:07 095 2 gusting 6 8.9
2017-Sep-22 03:02 058 1 gusting 6 9.4
2017-Sep-22 02:57 105 1 gusting 4 9.4
2017-Sep-22 02:52 125 1 gusting 4 9.4
2017-Sep-22 02:47 101 0 gusting 7 9.4
2017-Sep-22 02:42 093 1 gusting 7 9.4
2017-Sep-22 02:37 085 1 gusting 7 9.4
2017-Sep-22 02:32 069 1 gusting 7 9.4
2017-Sep-22 02:27 128 2 gusting 8 9.4
2017-Sep-22 02:22 107 2 gusting 8 9.4
2017-Sep-22 02:17 102 2 gusting 10 9.4
2017-Sep-22 02:12 096 3 gusting 10 9.4
2017-Sep-22 02:07 134 4 gusting 8 9.4
2017-Sep-22 02:02 076 4 gusting 8 9.4
2017-Sep-22 01:57 067 3 gusting 8 9.4
2017-Sep-22 01:52 130 3 gusting 8 9.4
2017-Sep-22 01:47 128 3 gusting 8 9.4
2017-Sep-22 01:42 103 2 gusting 7 9.4
2017-Sep-22 01:37 092 1 gusting 7 9.4
2017-Sep-22 01:32 090 1 gusting 9 9.4
2017-Sep-22 01:27 093 1 gusting 9 9.4
2017-Sep-22 01:22 080 1 gusting 6 9.4
2017-Sep-22 01:17 069 1 gusting 6 9.4
2017-Sep-22 01:12 054 1 gusting 6 9.4
2017-Sep-22 01:07 121 1 gusting 6 9.4
2017-Sep-22 01:02 123 1 gusting 6 9.4
2017-Sep-22 00:57 109 2 gusting 6 9.4
2017-Sep-22 00:52 105 2 gusting 6 9.4
2017-Sep-22 00:47 072 2 gusting 6 9.4
2017-Sep-22 00:42 123 1 gusting 6 9.4
2017-Sep-22 00:37 073 1 gusting 8 9.4
2017-Sep-22 00:32 078 1 gusting 8 9.4
2017-Sep-22 00:27 084 1 gusting 8 10.0
2017-Sep-22 00:22 113 2 gusting 10 10.0
2017-Sep-22 00:17 135 3 gusting 10 10.0
2017-Sep-22 00:12 105 3 gusting 8 10.0
2017-Sep-22 00:07 139 2 gusting 8 10.0
2017-Sep-22 00:02 128 2 gusting 8 10.0
2017-Sep-21 23:57 048 1 gusting 6 10.0
2017-Sep-21 23:52 069 1 gusting 6 10.0
2017-Sep-21 23:47 096 0 gusting 6 10.0
2017-Sep-21 23:42 094 0 gusting 6 10.0
2017-Sep-21 23:37 066 0 gusting 6 10.0
2017-Sep-21 23:32 107 2 gusting 6 10.0
2017-Sep-21 23:27 134 2 gusting 6 10.0
2017-Sep-21 23:22 117 1 gusting 3 10.0
2017-Sep-21 23:17 142 0 gusting 3 10.0
2017-Sep-21 23:12 080 0 gusting 3 10.0
2017-Sep-21 23:07 080 0 gusting 3 10.0
2017-Sep-21 23:02 056 0 gusting 3 10.0
2017-Sep-21 22:57 056 0 gusting 3 10.0
2017-Sep-21 22:52 056 0 gusting 3 10.0
2017-Sep-21 22:47 082 0 gusting 3 10.0
2017-Sep-21 22:42 082 10.0
2017-Sep-21 22:37 074 0 gusting 3 10.0
2017-Sep-21 22:32 105 0 gusting 3 10.0
2017-Sep-21 22:27 084 0 gusting 3 10.0
2017-Sep-21 22:22 093 0 gusting 3 10.0
2017-Sep-21 22:17 096 0 gusting 4 10.0
2017-Sep-21 22:12 094 0 gusting 4 10.0
2017-Sep-21 22:07 125 0 gusting 4 10.0
2017-Sep-21 22:02 127 0 gusting 5 10.0
2017-Sep-21 21:57 102 0 gusting 5 10.0
2017-Sep-21 21:52 081 0 gusting 5 10.0
2017-Sep-21 21:47 081 0 gusting 6 10.0
2017-Sep-21 21:42 047 1 gusting 6 10.0
2017-Sep-21 21:37 078 0 gusting 6 10.0
2017-Sep-21 21:32 113 1 gusting 6 10.0
2017-Sep-21 21:27 139 0 gusting 6 10.0
2017-Sep-21 21:22 101 1 gusting 6 10.0
2017-Sep-21 21:17 131 1 gusting 6 10.0
2017-Sep-21 21:12 119 2 gusting 6 10.6
2017-Sep-21 21:07 131 2 gusting 6 10.6
2017-Sep-21 21:02 136 2 gusting 6 10.6
2017-Sep-21 20:57 127 2 gusting 6 10.6
2017-Sep-21 20:52 111 2 gusting 6 10.6
2017-Sep-21 20:47 116 1 gusting 3 10.6
2017-Sep-21 20:42 150 0 gusting 3 10.6
2017-Sep-21 20:37 082 0 gusting 3 10.6
2017-Sep-21 20:32 121 10.6
2017-Sep-21 20:27 106 0 gusting 4 10.6
2017-Sep-21 20:22 102 0 gusting 8 10.6
2017-Sep-21 20:17 139 1 gusting 8 10.6
2017-Sep-21 20:12 126 2 gusting 8 10.6
2017-Sep-21 20:07 142 2 gusting 8 10.6
2017-Sep-21 20:02 123 3 gusting 8 11.1